ORMM/BSR METAR and TAF weather

Enter ICAO airport designator
Station Type Date Time Source
ORMM METAR 2020/07/14 18:00 UTC NOAA

ORMM 141800Z 01006KT CAVOK 38/08 Q0999 NOSIG


Station Type Date Time Source
ORMM Decoded METAR 2020/07/14 18:00 UTC NOAA

Station name not available
Jul 14, 2020 - 02:00 PM EDT / 2020.07.14 1800 UTC
Wind: from the N (010 degrees) at 7 MPH (6 KT):0
Visibility: greater than 7 mile(s):0
Temperature: 100 F (38 C)
Heat index: 96.1 F (35.6 C):1
Dew Point: 46 F (8 C)
Relative Humidity: 16%
Pressure (altimeter): 29.50 in. Hg (0999 hPa)
ob: ORMM 141800Z 01006KT CAVOK 38/08 Q0999 NOSIG
cycle: 18

Station Type Date Time Source
ORMM TAF 2020/07/14 18:10 UTC NOAA

TAF ORMM 141600Z 1418/1518 34008KT CAVOK
TEMPO 1420/1503 03006KT

Example: see airport list